sensor_id;sensor_type;location;lat;lon;timestamp;P1;durP1;ratioP1;P2;durP2;ratioP2
69280;SDS011;56392;51.082;17.080;2022-07-23T00:04:27;18.33;;;9.57;;
69280;SDS011;56392;51.082;17.080;2022-07-23T00:09:32;18.27;;;9.70;;
69280;SDS011;56392;51.082;17.080;2022-07-23T00:14:34;15.60;;;9.35;;
69280;SDS011;56392;51.082;17.080;2022-07-23T00:19:37;15.17;;;10.23;;
69280;SDS011;56392;51.082;17.080;2022-07-23T00:24:41;14.93;;;9.98;;
69280;SDS011;56392;51.082;17.080;2022-07-23T00:29:44;15.23;;;9.77;;
69280;SDS011;56392;51.082;17.080;2022-07-23T00:34:47;17.07;;;9.60;;
69280;SDS011;56392;51.082;17.080;2022-07-23T00:39:51;15.15;;;10.05;;
69280;SDS011;56392;51.082;17.080;2022-07-23T00:44:54;14.40;;;9.88;;
69280;SDS011;56392;51.082;17.080;2022-07-23T00:49:56;15.07;;;10.10;;
69280;SDS011;56392;51.082;17.080;2022-07-23T00:55:00;17.27;;;10.27;;
69280;SDS011;56392;51.082;17.080;2022-07-23T01:00:03;16.90;;;9.90;;
69280;SDS011;56392;51.082;17.080;2022-07-23T01:05:08;15.75;;;10.23;;
69280;SDS011;56392;51.082;17.080;2022-07-23T01:10:12;16.27;;;10.13;;
69280;SDS011;56392;51.082;17.080;2022-07-23T01:15:34;16.88;;;9.90;;
69280;SDS011;56392;51.082;17.080;2022-07-23T01:20:37;14.80;;;9.77;;
69280;SDS011;56392;51.082;17.080;2022-07-23T01:25:48;15.13;;;9.47;;
69280;SDS011;56392;51.082;17.080;2022-07-23T01:30:51;14.95;;;9.65;;
69280;SDS011;56392;51.082;17.080;2022-07-23T01:35:53;16.17;;;9.50;;
69280;SDS011;56392;51.082;17.080;2022-07-23T01:40:57;17.10;;;9.43;;
69280;SDS011;56392;51.082;17.080;2022-07-23T01:46:00;13.57;;;9.13;;
69280;SDS011;56392;51.082;17.080;2022-07-23T01:51:03;14.55;;;9.38;;
69280;SDS011;56392;51.082;17.080;2022-07-23T01:56:07;15.57;;;9.48;;
69280;SDS011;56392;51.082;17.080;2022-07-23T02:01:09;18.37;;;10.00;;
69280;SDS011;56392;51.082;17.080;2022-07-23T02:06:12;14.43;;;9.68;;
69280;SDS011;56392;51.082;17.080;2022-07-23T02:11:16;15.25;;;10.25;;
69280;SDS011;56392;51.082;17.080;2022-07-23T02:16:18;17.30;;;9.70;;
69280;SDS011;56392;51.082;17.080;2022-07-23T02:21:21;15.35;;;9.40;;
69280;SDS011;56392;51.082;17.080;2022-07-23T02:26:25;15.70;;;9.35;;
69280;SDS011;56392;51.082;17.080;2022-07-23T02:31:27;14.80;;;9.97;;
69280;SDS011;56392;51.082;17.080;2022-07-23T02:36:31;16.67;;;9.43;;
69280;SDS011;56392;51.082;17.080;2022-07-23T02:41:36;15.90;;;10.45;;
69280;SDS011;56392;51.082;17.080;2022-07-23T02:46:38;16.45;;;9.90;;
69280;SDS011;56392;51.082;17.080;2022-07-23T02:51:41;14.57;;;9.93;;
69280;SDS011;56392;51.082;17.080;2022-07-23T02:56:45;17.00;;;10.13;;
69280;SDS011;56392;51.082;17.080;2022-07-23T03:01:47;16.20;;;10.15;;
69280;SDS011;56392;51.082;17.080;2022-07-23T03:06:50;17.00;;;9.90;;
69280;SDS011;56392;51.082;17.080;2022-07-23T03:11:54;16.02;;;9.85;;
69280;SDS011;56392;51.082;17.080;2022-07-23T03:16:57;16.48;;;9.77;;
69280;SDS011;56392;51.082;17.080;2022-07-23T03:22:00;13.43;;;9.60;;
69280;SDS011;56392;51.082;17.080;2022-07-23T03:27:04;17.17;;;9.93;;
69280;SDS011;56392;51.082;17.080;2022-07-23T03:32:07;17.42;;;10.05;;
69280;SDS011;56392;51.082;17.080;2022-07-23T03:37:09;14.10;;;9.35;;
69280;SDS011;56392;51.082;17.080;2022-07-23T03:42:14;13.50;;;9.20;;
69280;SDS011;56392;51.082;17.080;2022-07-23T03:47:16;19.13;;;9.25;;
69280;SDS011;56392;51.082;17.080;2022-07-23T03:52:22;14.35;;;9.48;;
69280;SDS011;56392;51.082;17.080;2022-07-23T03:57:26;15.60;;;9.30;;
69280;SDS011;56392;51.082;17.080;2022-07-23T04:02:29;20.60;;;9.60;;
69280;SDS011;56392;51.082;17.080;2022-07-23T04:07:31;17.17;;;9.82;;
69280;SDS011;56392;51.082;17.080;2022-07-23T04:12:35;17.03;;;9.47;;
69280;SDS011;56392;51.082;17.080;2022-07-23T04:17:38;15.57;;;9.67;;
69280;SDS011;56392;51.082;17.080;2022-07-23T04:22:40;14.85;;;9.07;;
69280;SDS011;56392;51.082;17.080;2022-07-23T04:27:44;16.35;;;9.60;;
69280;SDS011;56392;51.082;17.080;2022-07-23T04:32:46;15.07;;;9.80;;
69280;SDS011;56392;51.082;17.080;2022-07-23T04:37:49;16.52;;;9.90;;
69280;SDS011;56392;51.082;17.080;2022-07-23T04:42:53;18.58;;;10.18;;
69280;SDS011;56392;51.082;17.080;2022-07-23T04:47:55;16.10;;;10.50;;
69280;SDS011;56392;51.082;17.080;2022-07-23T04:52:58;16.27;;;10.20;;
69280;SDS011;56392;51.082;17.080;2022-07-23T04:58:02;15.95;;;10.27;;
69280;SDS011;56392;51.082;17.080;2022-07-23T05:03:05;16.47;;;9.50;;
69280;SDS011;56392;51.082;17.080;2022-07-23T05:08:11;13.93;;;9.37;;
69280;SDS011;56392;51.082;17.080;2022-07-23T05:13:15;17.42;;;9.95;;
69280;SDS011;56392;51.082;17.080;2022-07-23T05:18:18;15.48;;;10.45;;
69280;SDS011;56392;51.082;17.080;2022-07-23T05:23:20;14.13;;;9.57;;
69280;SDS011;56392;51.082;17.080;2022-07-23T05:28:24;14.90;;;9.75;;
69280;SDS011;56392;51.082;17.080;2022-07-23T05:33:27;13.30;;;9.05;;
69280;SDS011;56392;51.082;17.080;2022-07-23T05:38:29;15.70;;;9.57;;
69280;SDS011;56392;51.082;17.080;2022-07-23T05:43:34;16.63;;;9.38;;
69280;SDS011;56392;51.082;17.080;2022-07-23T05:48:37;15.10;;;9.07;;
69280;SDS011;56392;51.082;17.080;2022-07-23T05:53:39;14.38;;;9.25;;
69280;SDS011;56392;51.082;17.080;2022-07-23T05:58:43;14.83;;;8.83;;
69280;SDS011;56392;51.082;17.080;2022-07-23T06:03:46;14.43;;;8.95;;
69280;SDS011;56392;51.082;17.080;2022-07-23T06:08:48;14.25;;;8.68;;
69280;SDS011;56392;51.082;17.080;2022-07-23T06:13:52;15.20;;;9.63;;
69280;SDS011;56392;51.082;17.080;2022-07-23T06:18:55;13.43;;;8.50;;
69280;SDS011;56392;51.082;17.080;2022-07-23T06:23:57;16.10;;;8.60;;
69280;SDS011;56392;51.082;17.080;2022-07-23T06:29:01;15.30;;;8.90;;
69280;SDS011;56392;51.082;17.080;2022-07-23T06:34:03;12.88;;;8.40;;
69280;SDS011;56392;51.082;17.080;2022-07-23T06:39:06;14.30;;;9.10;;
69280;SDS011;56392;51.082;17.080;2022-07-23T06:44:10;14.75;;;8.77;;
69280;SDS011;56392;51.082;17.080;2022-07-23T06:49:12;12.27;;;8.67;;
69280;SDS011;56392;51.082;17.080;2022-07-23T06:54:15;14.07;;;8.65;;
69280;SDS011;56392;51.082;17.080;2022-07-23T06:59:19;14.73;;;8.57;;
69280;SDS011;56392;51.082;17.080;2022-07-23T07:04:21;11.87;;;8.27;;
69280;SDS011;56392;51.082;17.080;2022-07-23T07:09:24;13.40;;;8.57;;
69280;SDS011;56392;51.082;17.080;2022-07-23T07:14:28;13.23;;;7.90;;
69280;SDS011;56392;51.082;17.080;2022-07-23T07:19:30;12.43;;;8.60;;
69280;SDS011;56392;51.082;17.080;2022-07-23T07:24:33;12.45;;;8.52;;
69280;SDS011;56392;51.082;17.080;2022-07-23T07:29:37;12.57;;;8.57;;
69280;SDS011;56392;51.082;17.080;2022-07-23T07:34:40;15.50;;;8.77;;
69280;SDS011;56392;51.082;17.080;2022-07-23T07:39:42;14.40;;;8.47;;
69280;SDS011;56392;51.082;17.080;2022-07-23T07:44:46;13.75;;;8.93;;
69280;SDS011;56392;51.082;17.080;2022-07-23T07:49:49;14.18;;;9.05;;
69280;SDS011;56392;51.082;17.080;2022-07-23T07:54:52;13.80;;;9.27;;
69280;SDS011;56392;51.082;17.080;2022-07-23T07:59:56;13.13;;;9.05;;
69280;SDS011;56392;51.082;17.080;2022-07-23T08:04:59;14.43;;;9.40;;
69280;SDS011;56392;51.082;17.080;2022-07-23T08:10:03;14.00;;;9.63;;
69280;SDS011;56392;51.082;17.080;2022-07-23T08:15:08;15.82;;;9.85;;
69280;SDS011;56392;51.082;17.080;2022-07-23T08:20:12;16.67;;;9.13;;
69280;SDS011;56392;51.082;17.080;2022-07-23T08:25:19;14.68;;;10.20;;
69280;SDS011;56392;51.082;17.080;2022-07-23T08:30:25;19.40;;;9.87;;
69280;SDS011;56392;51.082;17.080;2022-07-23T08:35:29;15.40;;;9.95;;
69280;SDS011;56392;51.082;17.080;2022-07-23T08:40:34;16.55;;;10.25;;
69280;SDS011;56392;51.082;17.080;2022-07-23T08:45:40;15.57;;;9.87;;
69280;SDS011;56392;51.082;17.080;2022-07-23T08:50:45;16.45;;;9.75;;
69280;SDS011;56392;51.082;17.080;2022-07-23T08:55:49;18.90;;;9.23;;
69280;SDS011;56392;51.082;17.080;2022-07-23T09:00:55;14.60;;;9.40;;
69280;SDS011;56392;51.082;17.080;2022-07-23T09:05:58;13.95;;;9.57;;
69280;SDS011;56392;51.082;17.080;2022-07-23T09:11:03;13.77;;;10.15;;
69280;SDS011;56392;51.082;17.080;2022-07-23T09:16:08;15.65;;;9.68;;
69280;SDS011;56392;51.082;17.080;2022-07-23T09:21:17;14.60;;;9.57;;
69280;SDS011;56392;51.082;17.080;2022-07-23T09:26:22;16.27;;;9.63;;
69280;SDS011;56392;51.082;17.080;2022-07-23T09:31:46;14.52;;;9.80;;
69280;SDS011;56392;51.082;17.080;2022-07-23T09:36:52;13.40;;;9.47;;
69280;SDS011;56392;51.082;17.080;2022-07-23T09:41:57;15.75;;;8.93;;
69280;SDS011;56392;51.082;17.080;2022-07-23T09:47:15;13.80;;;9.02;;
69280;SDS011;56392;51.082;17.080;2022-07-23T09:52:23;17.67;;;9.73;;
69280;SDS011;56392;51.082;17.080;2022-07-23T09:57:28;12.90;;;9.40;;
69280;SDS011;56392;51.082;17.080;2022-07-23T10:02:35;13.57;;;9.10;;
69280;SDS011;56392;51.082;17.080;2022-07-23T10:07:40;14.30;;;9.55;;
69280;SDS011;56392;51.082;17.080;2022-07-23T10:12:43;16.10;;;8.77;;
69280;SDS011;56392;51.082;17.080;2022-07-23T10:18:01;20.20;;;8.75;;
69280;SDS011;56392;51.082;17.080;2022-07-23T10:23:05;14.73;;;8.95;;
69280;SDS011;56392;51.082;17.080;2022-07-23T10:28:22;14.40;;;8.87;;
69280;SDS011;56392;51.082;17.080;2022-07-23T10:33:50;13.77;;;8.98;;
69280;SDS011;56392;51.082;17.080;2022-07-23T10:39:04;12.23;;;7.80;;
69280;SDS011;56392;51.082;17.080;2022-07-23T10:44:10;9.80;;;6.80;;
69280;SDS011;56392;51.082;17.080;2022-07-23T10:49:25;11.77;;;7.00;;
69280;SDS011;56392;51.082;17.080;2022-07-23T10:54:28;12.45;;;7.45;;
69280;SDS011;56392;51.082;17.080;2022-07-23T10:59:31;15.50;;;7.90;;
69280;SDS011;56392;51.082;17.080;2022-07-23T11:04:59;14.77;;;9.53;;
69280;SDS011;56392;51.082;17.080;2022-07-23T11:10:02;17.60;;;10.52;;
69280;SDS011;56392;51.082;17.080;2022-07-23T11:15:07;18.58;;;11.48;;
69280;SDS011;56392;51.082;17.080;2022-07-23T11:20:18;16.60;;;10.97;;
69280;SDS011;56392;51.082;17.080;2022-07-23T11:25:31;17.85;;;11.57;;
69280;SDS011;56392;51.082;17.080;2022-07-23T11:30:37;21.00;;;12.68;;
69280;SDS011;56392;51.082;17.080;2022-07-23T11:35:43;16.93;;;11.97;;
69280;SDS011;56392;51.082;17.080;2022-07-23T11:40:48;18.35;;;11.90;;
69280;SDS011;56392;51.082;17.080;2022-07-23T11:45:52;17.52;;;11.73;;
69280;SDS011;56392;51.082;17.080;2022-07-23T11:50:57;17.95;;;11.80;;
69280;SDS011;56392;51.082;17.080;2022-07-23T11:56:04;16.27;;;12.07;;
69280;SDS011;56392;51.082;17.080;2022-07-23T12:01:07;19.70;;;12.45;;
69280;SDS011;56392;51.082;17.080;2022-07-23T12:06:11;20.48;;;12.93;;
69280;SDS011;56392;51.082;17.080;2022-07-23T12:11:13;18.80;;;12.50;;
69280;SDS011;56392;51.082;17.080;2022-07-23T12:16:16;18.67;;;13.45;;
69280;SDS011;56392;51.082;17.080;2022-07-23T12:21:21;18.35;;;11.82;;
69280;SDS011;56392;51.082;17.080;2022-07-23T12:26:24;16.77;;;13.43;;
69280;SDS011;56392;51.082;17.080;2022-07-23T12:31:27;22.30;;;12.98;;
69280;SDS011;56392;51.082;17.080;2022-07-23T12:36:37;14.68;;;10.48;;
69280;SDS011;56392;51.082;17.080;2022-07-23T12:41:50;15.45;;;9.98;;
69280;SDS011;56392;51.082;17.080;2022-07-23T12:46:54;14.13;;;10.20;;
69280;SDS011;56392;51.082;17.080;2022-07-23T12:51:58;14.57;;;9.35;;
69280;SDS011;56392;51.082;17.080;2022-07-23T12:57:00;12.50;;;9.25;;
69280;SDS011;56392;51.082;17.080;2022-07-23T13:02:03;13.60;;;8.57;;
69280;SDS011;56392;51.082;17.080;2022-07-23T13:07:07;12.98;;;9.10;;
69280;SDS011;56392;51.082;17.080;2022-07-23T13:12:10;13.25;;;9.20;;
69280;SDS011;56392;51.082;17.080;2022-07-23T13:17:12;13.03;;;9.67;;
69280;SDS011;56392;51.082;17.080;2022-07-23T13:22:16;12.20;;;9.23;;
69280;SDS011;56392;51.082;17.080;2022-07-23T13:27:19;13.57;;;10.15;;
69280;SDS011;56392;51.082;17.080;2022-07-23T13:32:21;14.68;;;10.52;;
69280;SDS011;56392;51.082;17.080;2022-07-23T13:37:25;15.87;;;10.93;;
69280;SDS011;56392;51.082;17.080;2022-07-23T13:42:28;15.18;;;10.38;;
69280;SDS011;56392;51.082;17.080;2022-07-23T13:47:31;15.13;;;10.40;;
69280;SDS011;56392;51.082;17.080;2022-07-23T13:52:35;17.40;;;10.53;;
69280;SDS011;56392;51.082;17.080;2022-07-23T13:57:37;19.33;;;10.63;;
69280;SDS011;56392;51.082;17.080;2022-07-23T14:02:40;14.25;;;10.60;;
69280;SDS011;56392;51.082;17.080;2022-07-23T14:07:44;17.47;;;10.33;;
69280;SDS011;56392;51.082;17.080;2022-07-23T14:12:48;19.52;;;9.95;;
69280;SDS011;56392;51.082;17.080;2022-07-23T14:17:53;15.60;;;10.30;;
69280;SDS011;56392;51.082;17.080;2022-07-23T14:22:57;14.02;;;10.40;;
69280;SDS011;56392;51.082;17.080;2022-07-23T14:28:01;18.13;;;10.77;;
69280;SDS011;56392;51.082;17.080;2022-07-23T14:33:04;16.80;;;10.65;;
69280;SDS011;56392;51.082;17.080;2022-07-23T14:38:07;14.25;;;10.63;;
69280;SDS011;56392;51.082;17.080;2022-07-23T14:43:10;16.67;;;10.80;;
69280;SDS011;56392;51.082;17.080;2022-07-23T14:48:12;16.38;;;10.65;;
69280;SDS011;56392;51.082;17.080;2022-07-23T14:53:16;15.00;;;10.90;;
69280;SDS011;56392;51.082;17.080;2022-07-23T14:58:19;19.00;;;10.67;;
69280;SDS011;56392;51.082;17.080;2022-07-23T15:03:21;18.52;;;10.60;;
69280;SDS011;56392;51.082;17.080;2022-07-23T15:08:26;15.57;;;11.13;;
69280;SDS011;56392;51.082;17.080;2022-07-23T15:13:29;14.70;;;10.70;;
69280;SDS011;56392;51.082;17.080;2022-07-23T15:18:31;15.97;;;11.07;;
69280;SDS011;56392;51.082;17.080;2022-07-23T15:23:35;16.40;;;11.05;;
69280;SDS011;56392;51.082;17.080;2022-07-23T15:28:40;14.07;;;10.50;;
69280;SDS011;56392;51.082;17.080;2022-07-23T15:33:43;13.03;;;10.53;;
69280;SDS011;56392;51.082;17.080;2022-07-23T15:38:47;14.95;;;11.00;;
69280;SDS011;56392;51.082;17.080;2022-07-23T15:43:50;13.50;;;10.32;;
69280;SDS011;56392;51.082;17.080;2022-07-23T15:48:55;13.43;;;10.77;;
69280;SDS011;56392;51.082;17.080;2022-07-23T15:53:59;15.93;;;10.20;;
69280;SDS011;56392;51.082;17.080;2022-07-23T15:59:02;15.38;;;10.50;;
69280;SDS011;56392;51.082;17.080;2022-07-23T16:04:04;16.13;;;10.30;;
69280;SDS011;56392;51.082;17.080;2022-07-23T16:09:08;15.13;;;11.00;;
69280;SDS011;56392;51.082;17.080;2022-07-23T16:14:11;13.88;;;11.02;;
69280;SDS011;56392;51.082;17.080;2022-07-23T16:19:13;14.77;;;10.57;;
69280;SDS011;56392;51.082;17.080;2022-07-23T16:24:18;17.43;;;11.00;;
69280;SDS011;56392;51.082;17.080;2022-07-23T16:29:21;15.38;;;10.88;;
69280;SDS011;56392;51.082;17.080;2022-07-23T16:34:23;14.40;;;10.80;;
69280;SDS011;56392;51.082;17.080;2022-07-23T16:39:27;15.13;;;10.47;;
69280;SDS011;56392;51.082;17.080;2022-07-23T16:44:30;13.20;;;10.43;;
69280;SDS011;56392;51.082;17.080;2022-07-23T16:49:32;16.35;;;10.57;;
69280;SDS011;56392;51.082;17.080;2022-07-23T16:54:37;14.07;;;10.02;;
69280;SDS011;56392;51.082;17.080;2022-07-23T16:59:39;13.30;;;10.10;;
69280;SDS011;56392;51.082;17.080;2022-07-23T17:04:42;13.30;;;10.07;;
69280;SDS011;56392;51.082;17.080;2022-07-23T17:09:46;15.88;;;9.82;;
69280;SDS011;56392;51.082;17.080;2022-07-23T17:14:48;13.07;;;10.17;;
69280;SDS011;56392;51.082;17.080;2022-07-23T17:19:51;16.38;;;10.20;;
69280;SDS011;56392;51.082;17.080;2022-07-23T17:24:55;12.43;;;9.07;;
69280;SDS011;56392;51.082;17.080;2022-07-23T17:29:58;12.53;;;8.83;;
69280;SDS011;56392;51.082;17.080;2022-07-23T17:35:01;12.32;;;9.40;;
69280;SDS011;56392;51.082;17.080;2022-07-23T17:40:06;13.85;;;9.52;;
69280;SDS011;56392;51.082;17.080;2022-07-23T17:45:10;12.32;;;8.70;;
69280;SDS011;56392;51.082;17.080;2022-07-23T17:50:16;12.23;;;8.67;;
69280;SDS011;56392;51.082;17.080;2022-07-23T17:55:20;11.60;;;7.95;;
69280;SDS011;56392;51.082;17.080;2022-07-23T18:00:26;11.68;;;8.25;;
69280;SDS011;56392;51.082;17.080;2022-07-23T18:05:30;15.33;;;8.30;;
69280;SDS011;56392;51.082;17.080;2022-07-23T18:10:34;11.75;;;8.18;;
69280;SDS011;56392;51.082;17.080;2022-07-23T18:15:37;10.52;;;7.53;;
69280;SDS011;56392;51.082;17.080;2022-07-23T18:20:40;11.80;;;7.60;;
69280;SDS011;56392;51.082;17.080;2022-07-23T18:25:44;11.75;;;7.20;;
69280;SDS011;56392;51.082;17.080;2022-07-23T18:30:46;9.88;;;6.75;;
69280;SDS011;56392;51.082;17.080;2022-07-23T18:35:49;10.65;;;6.78;;
69280;SDS011;56392;51.082;17.080;2022-07-23T18:40:53;13.70;;;7.77;;
69280;SDS011;56392;51.082;17.080;2022-07-23T18:45:55;10.30;;;7.45;;
69280;SDS011;56392;51.082;17.080;2022-07-23T18:51:02;11.10;;;7.57;;
69280;SDS011;56392;51.082;17.080;2022-07-23T18:56:06;10.67;;;7.40;;
69280;SDS011;56392;51.082;17.080;2022-07-23T19:01:09;13.45;;;7.32;;
69280;SDS011;56392;51.082;17.080;2022-07-23T19:06:13;11.10;;;7.85;;
69280;SDS011;56392;51.082;17.080;2022-07-23T19:11:17;23.17;;;12.50;;
69280;SDS011;56392;51.082;17.080;2022-07-23T19:16:20;15.85;;;9.05;;
69280;SDS011;56392;51.082;17.080;2022-07-23T19:21:23;12.00;;;8.27;;
69280;SDS011;56392;51.082;17.080;2022-07-23T19:26:27;12.93;;;8.15;;
69280;SDS011;56392;51.082;17.080;2022-07-23T19:31:30;15.17;;;7.97;;
69280;SDS011;56392;51.082;17.080;2022-07-23T19:36:33;11.25;;;7.97;;
69280;SDS011;56392;51.082;17.080;2022-07-23T19:41:37;14.60;;;8.10;;
69280;SDS011;56392;51.082;17.080;2022-07-23T19:46:40;11.43;;;7.50;;
69280;SDS011;56392;51.082;17.080;2022-07-23T19:51:43;12.35;;;8.32;;
69280;SDS011;56392;51.082;17.080;2022-07-23T19:56:47;12.10;;;8.05;;
69280;SDS011;56392;51.082;17.080;2022-07-23T20:01:49;12.47;;;8.23;;
69280;SDS011;56392;51.082;17.080;2022-07-23T20:06:52;11.73;;;7.97;;
69280;SDS011;56392;51.082;17.080;2022-07-23T20:11:56;13.65;;;8.32;;
69280;SDS011;56392;51.082;17.080;2022-07-23T20:16:59;13.60;;;8.43;;
69280;SDS011;56392;51.082;17.080;2022-07-23T20:22:02;12.73;;;7.93;;
69280;SDS011;56392;51.082;17.080;2022-07-23T20:27:07;13.57;;;8.23;;
69280;SDS011;56392;51.082;17.080;2022-07-23T20:32:10;13.38;;;8.38;;
69280;SDS011;56392;51.082;17.080;2022-07-23T20:37:12;13.00;;;8.30;;
69280;SDS011;56392;51.082;17.080;2022-07-23T20:42:17;12.77;;;8.35;;
69280;SDS011;56392;51.082;17.080;2022-07-23T20:47:21;12.82;;;8.23;;
69280;SDS011;56392;51.082;17.080;2022-07-23T20:52:24;12.93;;;8.57;;
69280;SDS011;56392;51.082;17.080;2022-07-23T20:57:28;12.93;;;8.20;;
69280;SDS011;56392;51.082;17.080;2022-07-23T21:02:31;13.82;;;8.45;;
69280;SDS011;56392;51.082;17.080;2022-07-23T21:07:33;12.27;;;8.38;;
69280;SDS011;56392;51.082;17.080;2022-07-23T21:12:37;12.83;;;8.63;;
69280;SDS011;56392;51.082;17.080;2022-07-23T21:17:40;13.45;;;8.43;;
69280;SDS011;56392;51.082;17.080;2022-07-23T21:22:44;14.55;;;9.00;;
69280;SDS011;56392;51.082;17.080;2022-07-23T21:27:48;12.50;;;8.30;;
69280;SDS011;56392;51.082;17.080;2022-07-23T21:32:51;13.70;;;9.10;;
69280;SDS011;56392;51.082;17.080;2022-07-23T21:37:55;12.40;;;8.75;;
69280;SDS011;56392;51.082;17.080;2022-07-23T21:42:59;13.37;;;8.37;;
69280;SDS011;56392;51.082;17.080;2022-07-23T21:48:01;13.32;;;8.20;;
69280;SDS011;56392;51.082;17.080;2022-07-23T21:53:04;13.00;;;8.30;;
69280;SDS011;56392;51.082;17.080;2022-07-23T21:58:08;16.10;;;8.77;;
69280;SDS011;56392;51.082;17.080;2022-07-23T22:03:11;13.67;;;8.57;;
69280;SDS011;56392;51.082;17.080;2022-07-23T22:08:14;13.85;;;8.35;;
69280;SDS011;56392;51.082;17.080;2022-07-23T22:13:18;12.30;;;8.10;;
69280;SDS011;56392;51.082;17.080;2022-07-23T22:18:20;12.60;;;8.33;;
69280;SDS011;56392;51.082;17.080;2022-07-23T22:23:24;12.02;;;8.40;;
69280;SDS011;56392;51.082;17.080;2022-07-23T22:28:28;13.27;;;8.52;;
69280;SDS011;56392;51.082;17.080;2022-07-23T22:33:31;15.07;;;8.37;;
69280;SDS011;56392;51.082;17.080;2022-07-23T22:38:34;12.93;;;8.18;;
69280;SDS011;56392;51.082;17.080;2022-07-23T22:43:38;12.27;;;8.20;;
69280;SDS011;56392;51.082;17.080;2022-07-23T22:48:42;12.53;;;8.33;;
69280;SDS011;56392;51.082;17.080;2022-07-23T22:53:44;13.10;;;8.10;;
69280;SDS011;56392;51.082;17.080;2022-07-23T22:58:48;12.27;;;7.95;;
69280;SDS011;56392;51.082;17.080;2022-07-23T23:03:51;11.50;;;8.07;;
69280;SDS011;56392;51.082;17.080;2022-07-23T23:08:54;12.13;;;7.90;;
69280;SDS011;56392;51.082;17.080;2022-07-23T23:13:58;12.75;;;7.88;;
69280;SDS011;56392;51.082;17.080;2022-07-23T23:19:03;15.48;;;8.13;;
69280;SDS011;56392;51.082;17.080;2022-07-23T23:24:08;13.40;;;8.50;;
69280;SDS011;56392;51.082;17.080;2022-07-23T23:29:12;13.15;;;8.75;;
69280;SDS011;56392;51.082;17.080;2022-07-23T23:34:15;16.85;;;8.32;;
69280;SDS011;56392;51.082;17.080;2022-07-23T23:39:18;18.47;;;10.33;;
69280;SDS011;56392;51.082;17.080;2022-07-23T23:44:22;13.70;;;8.67;;
69280;SDS011;56392;51.082;17.080;2022-07-23T23:49:25;12.95;;;7.82;;
69280;SDS011;56392;51.082;17.080;2022-07-23T23:54:28;12.88;;;7.78;;
69280;SDS011;56392;51.082;17.080;2022-07-23T23:59:32;13.53;;;8.63;;
